createdAt,value
2022-08-04T00:02:15.304Z,252.67195
2022-08-04T00:07:16.897Z,238.45035
2022-08-04T00:12:18.485Z,227.36935
2022-08-04T00:17:20.436Z,219.1919
2022-08-04T00:22:22.983Z,217.29565
2022-08-04T00:27:24.560Z,210.95515
2022-08-04T00:32:34.215Z,201.3555
2022-08-04T00:37:36.597Z,196.49645
2022-08-04T00:42:38.255Z,189.5633
2022-08-04T00:48:00.602Z,184.2302
2022-08-04T00:53:02.246Z,170.06775
2022-08-04T00:58:03.912Z,147.07585
2022-08-04T01:03:05.523Z,124.084
2022-08-04T01:08:07.151Z,96.58855
2022-08-04T01:13:10.101Z,83.6113
2022-08-04T01:18:17.158Z,80.2929
2022-08-04T01:23:18.929Z,76.55975
2022-08-04T01:28:20.570Z,73.5969
2022-08-04T01:33:22.324Z,73.1228
2022-08-04T01:38:24.588Z,72.11555
2022-08-04T01:43:26.195Z,59.43455
2022-08-04T01:48:27.838Z,30.1025
2022-08-04T01:53:29.413Z,17.30315
2022-08-04T01:58:30.998Z,21.48565
2022-08-04T02:04:21.552Z,22.2786
2022-08-04T02:09:24.642Z,14.699
2022-08-04T02:14:26.265Z,19.40155
2022-08-04T02:19:27.861Z,16.8934
2022-08-04T02:24:29.525Z,16.34005
2022-08-04T02:29:32.204Z,13.8319
2022-08-04T02:34:33.929Z,8.39155
2022-08-04T02:39:47.893Z,13.0941
2022-08-04T02:44:49.872Z,11.93225
2022-08-04T02:49:51.461Z,12.30115
2022-08-04T02:54:54.411Z,8.63115
2022-08-04T02:59:56.066Z,6.123
2022-08-04T03:04:57.647Z,7.7089
2022-08-04T03:09:59.205Z,2.42955
2022-08-04T03:15:00.865Z,2.01475
2022-08-04T03:20:02.443Z,1.2444
2022-08-04T03:25:04.036Z,2.50815
2022-08-04T03:30:05.655Z,1.3463
2022-08-04T03:35:07.311Z,2.3237
2022-08-04T03:40:10.572Z,1.16185
2022-08-04T03:45:23.130Z,0
2022-08-04T03:50:24.954Z,0
2022-08-04T03:55:26.585Z,0
2022-08-04T04:00:28.247Z,0
2022-08-04T04:05:30.582Z,0
2022-08-04T04:10:37.062Z,0
2022-08-04T04:15:38.675Z,0
2022-08-04T04:20:40.300Z,0
2022-08-04T04:25:41.924Z,0
2022-08-04T04:30:43.531Z,0
2022-08-04T04:35:45.192Z,0
2022-08-04T04:40:46.915Z,0
2022-08-04T04:45:48.521Z,0
2022-08-04T04:50:50.277Z,0
2022-08-04T04:55:51.914Z,0
2022-08-04T05:00:53.501Z,0
2022-08-04T05:05:55.175Z,0
2022-08-04T05:10:56.799Z,0
2022-08-04T05:15:58.508Z,0
2022-08-04T05:21:00.105Z,0
2022-08-04T05:26:01.731Z,0
2022-08-04T05:31:03.358Z,0
2022-08-04T05:36:20.673Z,0
2022-08-04T05:41:41.974Z,0
2022-08-04T05:46:54.202Z,0
2022-08-04T05:51:56.605Z,0
2022-08-04T05:56:58.211Z,0
2022-08-04T06:01:59.861Z,0
2022-08-04T06:07:01.492Z,0
2022-08-04T06:12:04.256Z,0
2022-08-04T06:17:06.257Z,0
2022-08-04T06:23:36.052Z,0
2022-08-04T06:28:55.556Z,0
2022-08-04T06:33:57.149Z,0
2022-08-04T06:38:58.957Z,0
2022-08-04T06:44:00.594Z,0
2022-08-04T06:49:02.213Z,0
2022-08-04T06:54:03.826Z,0
2022-08-04T06:59:05.404Z,0
2022-08-04T07:04:06.956Z,0
2022-08-04T07:09:08.556Z,0
2022-08-04T07:14:10.284Z,0
2022-08-04T07:19:14.791Z,0
2022-08-04T07:24:20.413Z,0
2022-08-04T07:29:21.990Z,0
2022-08-04T07:34:23.612Z,0
2022-08-04T07:39:28.551Z,0
2022-08-04T07:44:31.233Z,0
2022-08-04T07:49:55.101Z,0
2022-08-04T07:54:59.290Z,0
2022-08-04T08:00:01.184Z,0
2022-08-04T08:05:02.846Z,0
2022-08-04T08:10:04.485Z,0
2022-08-04T08:15:06.162Z,0
2022-08-04T08:20:10.352Z,0
2022-08-04T08:25:12.035Z,0
2022-08-04T08:30:14.397Z,0
2022-08-04T08:35:16.056Z,0
2022-08-04T08:40:17.737Z,0
2022-08-04T08:45:34.085Z,0
2022-08-04T08:50:35.663Z,0
2022-08-04T08:55:37.452Z,0
2022-08-04T09:00:39.185Z,0
2022-08-04T09:05:40.782Z,0
2022-08-04T09:10:42.358Z,0
2022-08-04T09:15:45.426Z,0
2022-08-04T09:20:47.071Z,0
2022-08-04T09:25:48.732Z,0
2022-08-04T09:30:50.327Z,0
2022-08-04T09:35:51.985Z,0
2022-08-04T09:40:56.914Z,0
2022-08-04T09:45:59.153Z,0
2022-08-04T09:51:00.769Z,0
2022-08-04T09:56:03.619Z,0
2022-08-04T10:01:05.471Z,0
2022-08-04T10:06:07.044Z,0
2022-08-04T10:11:08.698Z,0
2022-08-04T10:16:10.311Z,0
2022-08-04T10:21:15.526Z,0
2022-08-04T10:26:17.670Z,0
2022-08-04T10:31:19.309Z,0
2022-08-04T10:36:20.903Z,0
2022-08-04T10:41:22.486Z,0
2022-08-04T10:46:24.086Z,0
2022-08-04T10:51:25.691Z,0
2022-08-04T10:56:27.282Z,0
2022-08-04T11:02:00.714Z,0
2022-08-04T11:07:04.955Z,0
2022-08-04T11:12:06.547Z,0
2022-08-04T11:17:08.195Z,0
2022-08-04T11:22:09.806Z,0
2022-08-04T11:27:11.437Z,0
2022-08-04T11:32:13.061Z,0
2022-08-04T11:37:14.866Z,0
2022-08-04T11:42:16.557Z,0
2022-08-04T11:47:18.158Z,0
2022-08-04T11:52:21.835Z,0
2022-08-04T11:57:25.678Z,0
2022-08-04T12:02:38.016Z,0
2022-08-04T12:07:41.772Z,0
2022-08-04T12:12:43.881Z,0
2022-08-04T12:17:52.376Z,0
2022-08-04T12:22:55.305Z,0
2022-08-04T12:27:57.543Z,0
2022-08-04T12:32:59.315Z,1.00735
2022-08-04T12:38:00.904Z,0.4148
2022-08-04T12:43:02.481Z,0.47405
2022-08-04T12:48:04.110Z,0.5333
2022-08-04T12:53:05.727Z,0.88885
2022-08-04T12:58:07.338Z,1.42215
2022-08-04T13:03:09.498Z,1.42215
2022-08-04T13:08:11.597Z,0.9481
2022-08-04T13:13:13.231Z,2.1925
2022-08-04T13:18:15.484Z,2.54805
2022-08-04T13:23:21.591Z,3.0221
2022-08-04T13:28:23.991Z,3.31835
2022-08-04T13:33:25.637Z,4.2665
2022-08-04T13:38:27.252Z,5.0961
2022-08-04T13:44:16.068Z,4.6813
2022-08-04T13:49:42.648Z,3.9702
2022-08-04T13:54:56.004Z,4.85905
2022-08-04T13:59:57.598Z,5.57015
2022-08-04T14:04:59.257Z,6.10345
2022-08-04T14:10:02.733Z,6.459
2022-08-04T14:15:05.730Z,7.34785
2022-08-04T14:20:07.344Z,7.6441
2022-08-04T14:25:09.126Z,9.4811
2022-08-04T14:30:17.574Z,11.1403
2022-08-04T14:35:19.210Z,12.97725
2022-08-04T14:40:30.541Z,14.99195
2022-08-04T14:45:33.040Z,22.04355
2022-08-04T14:50:34.708Z,17.48075
2022-08-04T14:55:36.300Z,21.6287
2022-08-04T15:00:37.892Z,28.97655
2022-08-04T15:05:59.779Z,34.19115
2022-08-04T15:11:07.594Z,43.07965
2022-08-04T15:16:09.307Z,30.5765
2022-08-04T15:21:11.026Z,31.58385
2022-08-04T15:26:12.668Z,46.93135
2022-08-04T15:32:06.086Z,43.90925
2022-08-04T15:37:09.894Z,57.06425
2022-08-04T15:42:16.210Z,71.5229
2022-08-04T15:47:20.730Z,92.02575
2022-08-04T15:52:22.518Z,197.56215
2022-08-04T15:57:24.724Z,105.4178
2022-08-04T16:02:26.873Z,113.12125
2022-08-04T16:07:28.811Z,155.13435
2022-08-04T16:12:52.732Z,82.66325
2022-08-04T16:17:55.755Z,85.50755
2022-08-04T16:22:57.529Z,101.09205
2022-08-04T16:27:59.215Z,116.8544
2022-08-04T16:33:00.877Z,120.7061
2022-08-04T16:38:02.467Z,122.89865
2022-08-04T16:43:04.068Z,139.25355
2022-08-04T16:48:05.698Z,132.91305
2022-08-04T16:53:07.306Z,100.3218
2022-08-04T16:58:16.278Z,140.49795
2022-08-04T17:03:17.860Z,143.9349
2022-08-04T17:08:29.721Z,153.7123
2022-08-04T17:14:01.983Z,139.7278
2022-08-04T17:19:06.490Z,196.08085
2022-08-04T17:24:16.258Z,118.9285
2022-08-04T17:29:19.742Z,115.3138
2022-08-04T17:34:21.886Z,102.33655
2022-08-04T17:39:28.303Z,77.15235
2022-08-04T17:44:37.015Z,84.441
2022-08-04T17:49:52.491Z,76.79695
2022-08-04T17:54:57.048Z,64.0567
2022-08-04T18:00:00.017Z,84.79665
2022-08-04T18:05:06.908Z,131.07645
2022-08-04T18:10:32.961Z,135.63925
2022-08-04T18:15:44.054Z,306.6541
2022-08-04T18:20:48.002Z,326.5645
2022-08-04T18:25:52.374Z,341.43825
2022-08-04T18:30:55.302Z,340.9642
2022-08-04T18:36:33.230Z,109.744
2022-08-04T18:42:02.026Z,296.9361
2022-08-04T18:47:19.344Z,75.7897
2022-08-04T18:52:24.563Z,284.55125
2022-08-04T18:57:59.024Z,98.0703
2022-08-04T19:03:01.895Z,261.9148
2022-08-04T19:08:32.875Z,245.85625
2022-08-04T19:13:36.919Z,89.241
2022-08-04T19:18:38.845Z,72.47125
2022-08-04T19:24:26.896Z,68.73805
2022-08-04T19:29:38.079Z,81.95235
2022-08-04T19:34:42.785Z,244.5523
2022-08-04T19:39:48.711Z,82.7819
2022-08-04T19:44:54.150Z,78.87095
2022-08-04T19:50:03.814Z,114.12885
2022-08-04T19:55:12.066Z,110.92905
2022-08-04T20:00:13.796Z,94.5742
2022-08-04T20:05:17.055Z,66.84185
2022-08-04T20:10:18.734Z,51.8499
2022-08-04T20:15:25.788Z,58.1311
2022-08-04T20:20:27.401Z,227.24995
2022-08-04T20:25:36.573Z,297.76505
2022-08-04T20:30:39.559Z,87.1079
2022-08-04T20:36:03.313Z,333.31905
2022-08-04T20:41:08.074Z,197.3253
2022-08-04T20:46:17.867Z,340.2518
2022-08-04T20:51:32.055Z,348.60685
2022-08-04T20:56:35.364Z,131.25395
2022-08-04T21:01:37.179Z,75.3749
2022-08-04T21:06:38.828Z,357.7916
2022-08-04T21:11:40.439Z,150.2163
2022-08-04T21:16:55.422Z,398.38245
2022-08-04T21:21:58.028Z,103.99595
2022-08-04T21:27:00.479Z,165.56355
2022-08-04T21:32:03.360Z,77.4488
2022-08-04T21:37:09.044Z,106.54385
2022-08-04T21:42:29.278Z,115.8472
2022-08-04T21:47:37.337Z,361.3473
2022-08-04T21:52:48.991Z,90.12985
2022-08-04T21:57:51.016Z,121.6545
2022-08-04T22:02:53.237Z,160.3492
2022-08-04T22:07:55.584Z,362.4144
2022-08-04T22:12:57.203Z,358.2074
2022-08-04T22:18:00.352Z,359.86655
2022-08-04T22:23:17.026Z,100.4999
2022-08-04T22:28:21.157Z,75.49335
2022-08-04T22:33:55.141Z,201.11765
2022-08-04T22:39:06.651Z,65.1826
2022-08-04T22:44:15.083Z,63.9975
2022-08-04T22:49:17.343Z,52.1461
2022-08-04T22:54:18.996Z,43.0798
2022-08-04T22:59:20.980Z,32.53205
2022-08-04T23:04:23.189Z,35.31715
2022-08-04T23:09:27.082Z,35.31715
2022-08-04T23:14:51.566Z,38.9318
2022-08-04T23:19:55.467Z,38.1022
2022-08-04T23:25:01.210Z,72.2342
2022-08-04T23:30:05.617Z,65.4789
2022-08-04T23:35:07.367Z,52.5609
2022-08-04T23:40:29.932Z,137.476
2022-08-04T23:46:07.235Z,107.25505
2022-08-04T23:51:13.712Z,206.27325
2022-08-04T23:56:19.818Z,203.25115
